createdAt,value
2017-11-04T00:01:21.743Z,44.03
2017-11-04T00:03:49.275Z,47.13
2017-11-04T00:06:17.607Z,45.43
2017-11-04T00:08:45.138Z,50.43
2017-11-04T00:11:12.694Z,45.83
2017-11-04T00:13:40.223Z,44.47
2017-11-04T00:16:08.546Z,44.10
2017-11-04T00:18:36.091Z,42.43
2017-11-04T00:21:03.647Z,39.57
2017-11-04T00:23:31.178Z,44.10
2017-11-04T00:25:59.515Z,42.10
2017-11-04T00:28:27.043Z,47.37
2017-11-04T00:30:54.601Z,44.63
2017-11-04T00:33:22.136Z,45.37
2017-11-04T00:35:50.461Z,45.50
2017-11-04T00:38:17.999Z,48.63
2017-11-04T00:40:45.555Z,44.10
2017-11-04T00:43:13.095Z,48.37
2017-11-04T00:45:41.431Z,49.17
2017-11-04T00:48:08.959Z,43.77
2017-11-04T00:50:36.517Z,52.13
2017-11-04T00:53:04.069Z,48.10
2017-11-04T00:55:31.630Z,42.37
2017-11-04T00:57:59.162Z,49.10
2017-11-04T01:00:26.723Z,53.87
2017-11-04T01:02:54.251Z,41.97
2017-11-04T01:05:21.812Z,52.07
2017-11-04T01:07:49.345Z,69.03
2017-11-04T01:10:16.915Z,49.50
2017-11-04T01:12:44.456Z,50.80
2017-11-04T01:15:11.982Z,50.97
2017-11-04T01:17:39.550Z,46.33
2017-11-04T01:20:07.850Z,57.20
2017-11-04T01:22:35.410Z,57.67
2017-11-04T01:25:02.951Z,53.60
2017-11-04T01:27:30.525Z,50.63
2017-11-04T01:29:58.071Z,50.60
2017-11-04T01:32:26.402Z,51.90
2017-11-04T01:34:53.935Z,46.20
2017-11-04T01:37:21.487Z,55.30
2017-11-04T01:39:49.027Z,55.63
2017-11-04T01:42:17.347Z,54.20
2017-11-04T01:44:44.881Z,52.97
2017-11-04T01:47:12.435Z,59.87
2017-11-04T01:49:39.971Z,47.87
2017-11-04T01:52:07.531Z,49.13
2017-11-04T01:54:35.073Z,52.10
2017-11-04T01:57:02.636Z,49.63
2017-11-04T01:59:30.175Z,52.40
2017-11-04T02:01:57.735Z,55.50
2017-11-04T02:04:25.270Z,54.40
2017-11-04T02:06:52.842Z,53.80
2017-11-04T02:09:20.388Z,50.37
2017-11-04T02:11:47.944Z,56.47
2017-11-04T02:14:15.475Z,49.43
2017-11-04T02:16:43.799Z,58.27
2017-11-04T02:19:11.332Z,60.03
2017-11-04T02:21:38.889Z,55.60
2017-11-04T02:24:07.193Z,64.40
2017-11-04T02:26:34.747Z,60.17
2017-11-04T02:29:02.278Z,57.47
2017-11-04T02:31:30.608Z,62.87
2017-11-04T02:33:58.148Z,61.00
2017-11-04T02:36:25.695Z,59.90
2017-11-04T02:38:53.227Z,60.37
2017-11-04T02:41:21.552Z,62.77
2017-11-04T02:43:49.082Z,66.63
2017-11-04T02:46:16.631Z,64.90
2017-11-04T02:48:53.080Z,55.97
2017-11-04T02:51:20.644Z,50.57
2017-11-04T02:53:48.173Z,62.57
2017-11-04T02:56:15.739Z,52.30
2017-11-04T02:58:43.275Z,56.80
2017-11-04T03:01:10.847Z,54.70
2017-11-04T03:03:38.387Z,56.23
2017-11-04T03:06:05.968Z,59.10
2017-11-04T03:08:33.499Z,56.47
2017-11-04T03:11:01.051Z,61.33
2017-11-04T03:13:28.584Z,52.47
2017-11-04T03:15:56.904Z,62.00
2017-11-04T03:18:24.438Z,58.67
2017-11-04T03:20:52.736Z,54.23
2017-11-04T03:23:20.286Z,55.90
2017-11-04T03:25:47.828Z,56.70
2017-11-04T03:28:16.155Z,52.03
2017-11-04T03:30:43.687Z,58.70
2017-11-04T03:33:11.334Z,53.67
2017-11-04T03:35:38.872Z,62.80
2017-11-04T03:38:06.434Z,55.97
2017-11-04T03:40:34.739Z,58.33
2017-11-04T03:43:02.295Z,59.30
2017-11-04T03:45:29.821Z,56.03
2017-11-04T03:47:57.700Z,53.30
2017-11-04T03:50:25.999Z,52.90
2017-11-04T03:52:53.564Z,55.77
2017-11-04T03:55:21.095Z,58.33
2017-11-04T03:57:50.215Z,57.57
2017-11-04T04:00:17.742Z,52.70
2017-11-04T04:02:45.300Z,61.57
2017-11-04T04:05:12.824Z,53.10
2017-11-04T04:07:40.383Z,56.40
2017-11-04T04:10:07.920Z,53.20
2017-11-04T04:12:35.483Z,62.70
2017-11-04T04:15:03.015Z,56.97
2017-11-04T04:17:31.334Z,50.37
2017-11-04T04:19:58.866Z,58.97
2017-11-04T04:22:26.419Z,53.33
2017-11-04T04:24:54.716Z,55.47
2017-11-04T04:27:22.271Z,57.63
2017-11-04T04:29:49.799Z,56.60
2017-11-04T04:32:17.359Z,52.70
2017-11-04T04:34:44.896Z,52.63
2017-11-04T04:37:12.463Z,52.37
2017-11-04T04:39:39.996Z,56.33
2017-11-04T04:42:07.563Z,51.93
2017-11-04T04:44:35.100Z,54.03
2017-11-04T04:47:02.652Z,61.37
2017-11-04T04:49:30.185Z,53.80
2017-11-04T04:51:58.508Z,56.33
2017-11-04T04:54:26.046Z,55.53
2017-11-04T04:56:53.594Z,47.73
2017-11-04T04:59:21.887Z,58.70
2017-11-04T05:01:49.460Z,56.13
2017-11-04T05:04:16.999Z,54.10
2017-11-04T05:06:44.555Z,49.23
2017-11-04T05:09:12.098Z,52.53
2017-11-04T05:11:40.414Z,49.27
2017-11-04T05:14:07.947Z,52.77
2017-11-04T05:16:36.272Z,57.47
2017-11-04T05:19:03.799Z,51.27
2017-11-04T05:21:31.358Z,55.10
2017-11-04T05:23:58.890Z,61.87
2017-11-04T05:26:27.193Z,55.23
2017-11-04T05:28:54.743Z,67.47
2017-11-04T05:31:22.281Z,52.43
2017-11-04T05:33:50.607Z,57.43
2017-11-04T05:36:18.137Z,51.40
2017-11-04T05:38:45.687Z,50.57
2017-11-04T05:41:13.990Z,45.97
2017-11-04T05:43:41.551Z,46.23
2017-11-04T05:46:09.079Z,46.57
2017-11-04T05:48:37.398Z,47.27
2017-11-04T05:51:04.938Z,47.07
2017-11-04T05:53:32.491Z,45.27
2017-11-04T05:56:00.035Z,48.63
2017-11-04T05:58:28.365Z,38.77
2017-11-04T06:00:56.670Z,53.00
2017-11-04T06:03:24.230Z,46.30
2017-11-04T06:05:51.759Z,57.30
2017-11-04T06:08:19.315Z,54.20
2017-11-04T06:10:46.847Z,53.40
2017-11-04T06:13:14.409Z,52.90
2017-11-04T06:15:41.939Z,50.57
2017-11-04T06:18:09.495Z,57.00
2017-11-04T06:20:37.022Z,52.33
2017-11-04T06:23:04.583Z,54.97
2017-11-04T06:25:32.119Z,52.93
2017-11-04T06:27:59.673Z,65.23
2017-11-04T06:30:27.210Z,60.93
2017-11-04T06:32:55.548Z,56.90
2017-11-04T06:35:23.084Z,50.07
2017-11-04T06:37:50.659Z,50.90
2017-11-04T06:40:18.192Z,57.27
2017-11-04T06:42:45.747Z,57.90
2017-11-04T06:45:13.289Z,53.63
2017-11-04T06:47:41.614Z,54.00
2017-11-04T06:50:09.144Z,57.43
2017-11-04T06:52:36.707Z,44.50
2017-11-04T06:55:04.234Z,52.30
2017-11-04T06:57:32.569Z,51.03
2017-11-04T07:00:00.109Z,45.90
2017-11-04T07:02:27.662Z,52.30
2017-11-04T07:04:55.192Z,57.53
2017-11-04T07:07:23.524Z,61.50
2017-11-04T07:09:51.050Z,54.77
2017-11-04T07:12:18.606Z,47.90
2017-11-04T07:14:46.153Z,58.77
2017-11-04T07:17:14.471Z,55.17
2017-11-04T07:19:42.011Z,60.30
2017-11-04T07:22:09.563Z,53.57
2017-11-04T07:24:37.098Z,51.30
2017-11-04T07:27:04.660Z,54.40
2017-11-04T07:29:32.967Z,53.10
2017-11-04T07:32:00.530Z,56.80
2017-11-04T07:34:28.058Z,52.30
2017-11-04T07:36:56.364Z,52.67
2017-11-04T07:39:23.920Z,50.93
2017-11-04T07:41:51.451Z,50.50
2017-11-04T07:44:19.011Z,40.93
2017-11-04T07:46:46.544Z,52.30
2017-11-04T07:49:14.102Z,46.53
2017-11-04T07:51:42.402Z,45.03
2017-11-04T07:54:09.968Z,43.23
2017-11-04T07:56:37.493Z,44.53
2017-11-04T07:59:05.040Z,47.33
2017-11-04T08:01:32.574Z,42.10
2017-11-04T08:04:00.140Z,44.20
2017-11-04T08:06:27.691Z,42.03
2017-11-04T08:08:55.296Z,49.10
2017-11-04T08:11:22.841Z,47.53
2017-11-04T08:13:50.398Z,50.50
2017-11-04T08:16:17.939Z,42.40
2017-11-04T08:18:45.504Z,50.40
2017-11-04T08:21:13.043Z,56.93
2017-11-04T08:23:40.607Z,62.97
2017-11-04T08:26:08.913Z,57.03
2017-11-04T08:28:36.472Z,50.53
2017-11-04T08:31:04.012Z,44.87
2017-11-04T08:33:31.569Z,44.70
2017-11-04T08:35:59.106Z,47.07
2017-11-04T08:38:27.442Z,50.63
2017-11-04T08:40:54.975Z,47.80
2017-11-04T08:43:22.544Z,41.93
2017-11-04T08:45:50.079Z,49.77
2017-11-04T08:48:18.409Z,50.27
2017-11-04T08:50:45.950Z,41.77
2017-11-04T08:53:13.514Z,52.47
2017-11-04T08:55:41.051Z,49.37
2017-11-04T08:58:08.582Z,44.57
2017-11-04T09:00:36.908Z,47.33
2017-11-04T09:03:06.299Z,44.90
2017-11-04T09:05:33.859Z,49.87
2017-11-04T09:08:01.406Z,46.50
2017-11-04T09:10:28.963Z,42.90
2017-11-04T09:12:56.490Z,43.60
2017-11-04T09:15:24.050Z,36.80
2017-11-04T09:17:52.419Z,41.23
2017-11-04T09:20:19.998Z,44.43
2017-11-04T09:22:48.307Z,40.10
2017-11-04T09:25:15.862Z,44.17
2017-11-04T09:27:43.403Z,43.00
2017-11-04T09:30:11.731Z,35.13
2017-11-04T09:32:39.259Z,34.33
2017-11-04T09:35:06.815Z,31.77
2017-11-04T09:37:34.503Z,41.30
2017-11-04T09:40:02.078Z,36.57
2017-11-04T09:42:29.618Z,38.20
2017-11-04T09:44:57.170Z,34.33
2017-11-04T09:47:24.708Z,35.20
2017-11-04T09:49:53.007Z,37.27
2017-11-04T09:52:20.582Z,35.73
2017-11-04T09:54:48.114Z,37.10
2017-11-04T09:57:15.771Z,32.70
2017-11-04T09:59:43.311Z,38.23
2017-11-04T10:02:11.640Z,35.10
2017-11-04T10:04:39.384Z,33.17
2017-11-04T10:07:06.943Z,35.80
2017-11-04T10:09:34.482Z,60.63
2017-11-04T10:12:02.811Z,41.57
2017-11-04T10:14:30.339Z,35.60
2017-11-04T10:16:57.895Z,30.90
2017-11-04T10:19:25.422Z,33.47
2017-11-04T10:21:52.988Z,33.73
2017-11-04T10:24:21.292Z,29.80
2017-11-04T10:26:48.850Z,29.07
2017-11-04T10:29:16.382Z,26.97
2017-11-04T10:31:43.939Z,29.50
2017-11-04T10:34:11.467Z,27.80
2017-11-04T10:36:39.026Z,23.07
2017-11-04T10:39:06.554Z,27.23
2017-11-04T10:41:34.112Z,24.10
2017-11-04T10:44:01.639Z,26.67
2017-11-04T10:46:29.166Z,23.23
2017-11-04T10:48:56.722Z,27.17
2017-11-04T10:51:24.248Z,26.80
2017-11-04T10:53:51.803Z,26.60
2017-11-04T10:56:19.336Z,25.73
2017-11-04T10:58:46.896Z,23.63
2017-11-04T11:01:14.427Z,22.80
2017-11-04T11:03:41.980Z,24.40
2017-11-04T11:06:09.520Z,23.73
2017-11-04T11:08:37.066Z,26.07
2017-11-04T11:11:04.606Z,20.97
2017-11-04T11:13:32.930Z,26.50
2017-11-04T11:16:00.454Z,23.30
2017-11-04T11:18:28.014Z,20.03
2017-11-04T11:20:55.547Z,19.20
2017-11-04T11:23:23.153Z,20.60
2017-11-04T11:25:50.683Z,19.70
2017-11-04T11:28:19.014Z,20.10
2017-11-04T11:30:46.544Z,22.43
2017-11-04T11:33:14.194Z,16.73
2017-11-04T11:35:41.747Z,19.07
2017-11-04T11:38:10.067Z,21.40
2017-11-04T11:40:37.599Z,16.60
2017-11-04T11:43:05.150Z,16.93
2017-11-04T11:45:32.684Z,17.50
2017-11-04T11:48:00.249Z,15.07
2017-11-04T11:50:28.566Z,20.57
2017-11-04T11:52:56.095Z,18.90
2017-11-04T11:55:24.558Z,18.10
2017-11-04T11:57:52.094Z,18.00
2017-11-04T12:00:19.647Z,14.87
2017-11-04T12:02:47.179Z,16.77
2017-11-04T12:05:14.740Z,14.07
2017-11-04T12:07:42.267Z,18.00
2017-11-04T12:10:12.036Z,16.60
2017-11-04T12:12:39.590Z,13.63
2017-11-04T12:15:07.150Z,14.17
2017-11-04T12:17:34.683Z,13.33
2017-11-04T12:20:02.234Z,15.63
2017-11-04T12:22:30.522Z,14.67
2017-11-04T12:24:58.075Z,12.13
2017-11-04T12:27:25.606Z,12.87
2017-11-04T12:29:53.151Z,11.77
2017-11-04T12:32:20.680Z,12.67
2017-11-04T12:34:48.245Z,13.40
2017-11-04T12:37:15.780Z,10.30
2017-11-04T12:39:43.337Z,11.63
2017-11-04T12:42:10.869Z,13.93
2017-11-04T12:44:39.191Z,13.67
2017-11-04T12:47:08.663Z,12.50
2017-11-04T12:49:36.988Z,10.10
2017-11-04T12:52:04.512Z,15.37
2017-11-04T12:54:32.072Z,11.87
2017-11-04T12:56:59.607Z,13.40
2017-11-04T12:59:27.931Z,12.20
2017-11-04T13:01:55.462Z,12.53
2017-11-04T13:04:23.784Z,13.03
2017-11-04T13:06:51.307Z,9.27
2017-11-04T13:09:18.863Z,13.33
2017-11-04T13:11:46.410Z,11.07
2017-11-04T13:14:14.736Z,12.20
2017-11-04T13:16:42.263Z,10.77
2017-11-04T13:19:10.411Z,10.43
2017-11-04T13:21:38.709Z,9.10
2017-11-04T13:24:06.278Z,11.10
2017-11-04T13:26:34.188Z,10.60
2017-11-04T13:29:01.746Z,12.60
2017-11-04T13:31:30.262Z,11.80
2017-11-04T13:33:58.583Z,11.83
2017-11-04T13:36:26.134Z,11.00
2017-11-04T13:38:53.686Z,11.50
2017-11-04T13:41:21.215Z,12.10
2017-11-04T13:43:49.535Z,14.50
2017-11-04T13:46:17.066Z,12.10
2017-11-04T13:48:45.389Z,10.80
2017-11-04T13:51:12.917Z,10.93
2017-11-04T13:53:40.466Z,8.33
2017-11-04T13:56:08.004Z,11.23
2017-11-04T13:58:35.558Z,11.10
2017-11-04T14:01:03.115Z,12.07
2017-11-04T14:03:30.648Z,13.30
2017-11-04T14:05:58.208Z,11.60
2017-11-04T14:08:25.737Z,14.30
2017-11-04T14:10:53.293Z,10.37
2017-11-04T14:13:20.824Z,13.67
2017-11-04T14:15:49.154Z,13.73
2017-11-04T14:18:16.684Z,12.50
2017-11-04T14:20:44.266Z,19.13
2017-11-04T14:23:11.795Z,13.80
2017-11-04T14:25:40.120Z,9.87
2017-11-04T14:28:07.637Z,14.73
2017-11-04T14:30:35.953Z,12.70
2017-11-04T14:33:03.488Z,20.70
2017-11-04T14:35:31.043Z,15.07
2017-11-04T14:37:58.571Z,11.57
2017-11-04T14:40:26.902Z,13.80
2017-11-04T14:42:54.431Z,11.20
2017-11-04T14:45:22.752Z,17.13
2017-11-04T14:47:50.283Z,18.10
2017-11-04T14:50:17.856Z,12.50
2017-11-04T14:52:45.391Z,16.20
2017-11-04T14:55:12.947Z,13.57
2017-11-04T14:57:41.249Z,15.83
2017-11-04T15:00:08.809Z,17.17
2017-11-04T15:02:36.345Z,13.40
2017-11-04T15:05:03.902Z,12.73
2017-11-04T15:07:32.208Z,13.00
2017-11-04T15:09:59.767Z,12.07
2017-11-04T15:12:27.300Z,13.83
2017-11-04T15:14:55.622Z,13.30
2017-11-04T15:17:23.162Z,11.87
2017-11-04T15:19:50.730Z,12.00
2017-11-04T15:22:18.258Z,11.07
2017-11-04T15:24:45.815Z,12.80
2017-11-04T15:27:13.355Z,10.37
2017-11-04T15:29:41.679Z,11.73
2017-11-04T15:32:09.224Z,18.67
2017-11-04T15:34:36.774Z,13.57
2017-11-04T15:37:04.310Z,10.70
2017-11-04T15:39:31.868Z,12.67
2017-11-04T15:41:59.403Z,11.50
2017-11-04T15:44:26.957Z,16.63
2017-11-04T15:46:54.495Z,10.63
2017-11-04T15:49:22.053Z,11.47
2017-11-04T15:51:49.938Z,12.70
2017-11-04T15:54:18.300Z,13.33
2017-11-04T15:56:45.832Z,12.53
2017-11-04T15:59:14.714Z,12.90
2017-11-04T16:01:42.443Z,15.57
2017-11-04T16:04:09.996Z,17.37
2017-11-04T16:06:37.802Z,21.83
2017-11-04T16:09:06.145Z,17.07
2017-11-04T16:11:33.759Z,35.97
2017-11-04T16:14:01.286Z,12.80
2017-11-04T16:16:28.847Z,13.83
2017-11-04T16:18:56.375Z,12.97
2017-11-04T16:21:23.930Z,16.90
2017-11-04T16:23:51.466Z,12.90
2017-11-04T16:26:19.058Z,12.87
2017-11-04T16:28:46.773Z,13.57
2017-11-04T16:31:14.363Z,13.17
2017-11-04T16:33:41.891Z,14.40
2017-11-04T16:36:09.528Z,11.80
2017-11-04T16:38:37.059Z,16.83
2017-11-04T16:41:04.606Z,13.40
2017-11-04T16:43:32.135Z,15.10
2017-11-04T16:46:00.456Z,20.90
2017-11-04T16:48:28.760Z,14.13
2017-11-04T16:50:56.318Z,14.67
2017-11-04T16:53:23.850Z,13.70
2017-11-04T16:55:51.410Z,14.23
2017-11-04T16:58:18.945Z,16.20
2017-11-04T17:00:46.515Z,16.43
2017-11-04T17:03:14.083Z,14.37
2017-11-04T17:05:41.639Z,14.43
2017-11-04T17:08:09.175Z,15.30
2017-11-04T17:10:36.730Z,18.20
2017-11-04T17:13:04.268Z,19.87
2017-11-04T17:15:31.824Z,21.03
2017-11-04T17:17:59.354Z,17.20
2017-11-04T17:20:26.916Z,15.23
2017-11-04T17:22:54.452Z,18.17
2017-11-04T17:25:22.008Z,21.40
2017-11-04T17:27:49.546Z,18.47
2017-11-04T17:30:17.864Z,13.97
2017-11-04T17:32:45.404Z,16.00
2017-11-04T17:35:12.964Z,14.00
2017-11-04T17:37:40.554Z,18.97
2017-11-04T17:40:08.131Z,18.60
2017-11-04T17:42:35.676Z,20.00
2017-11-04T17:45:03.243Z,18.33
2017-11-04T17:47:30.786Z,16.23
2017-11-04T17:49:58.351Z,17.97
2017-11-04T17:52:25.896Z,15.57
2017-11-04T17:54:53.464Z,14.93
2017-11-04T17:57:20.991Z,14.97
2017-11-04T17:59:48.557Z,14.40
2017-11-04T18:02:16.102Z,13.67
2017-11-04T18:04:43.684Z,15.10
2017-11-04T18:07:11.226Z,13.80
2017-11-04T18:09:38.787Z,13.07
2017-11-04T18:12:06.324Z,13.77
2017-11-04T18:14:34.659Z,13.50
2017-11-04T18:17:02.986Z,14.70
2017-11-04T18:19:31.302Z,11.50
2017-11-04T18:21:58.865Z,15.20
2017-11-04T18:24:26.414Z,13.53
2017-11-04T18:26:53.983Z,13.63
2017-11-04T18:29:21.535Z,14.20
2017-11-04T18:31:49.091Z,13.33
2017-11-04T18:34:16.628Z,16.30
2017-11-04T18:36:47.553Z,13.40
2017-11-04T18:39:15.850Z,16.97
2017-11-04T18:41:43.414Z,15.20
2017-11-04T18:44:10.960Z,15.27
2017-11-04T18:46:39.287Z,20.33
2017-11-04T18:49:06.827Z,18.00
2017-11-04T18:51:34.379Z,19.43
2017-11-04T18:54:01.915Z,19.53
2017-11-04T18:56:30.242Z,18.33
2017-11-04T18:58:57.768Z,19.40
2017-11-04T19:01:25.323Z,20.20
2017-11-04T19:03:53.625Z,14.20
2017-11-04T19:06:21.192Z,21.23
2017-11-04T19:08:48.720Z,18.37
2017-11-04T19:11:16.287Z,17.10
2017-11-04T19:13:43.835Z,14.70
2017-11-04T19:16:12.159Z,21.37
2017-11-04T19:18:39.708Z,19.43
2017-11-04T19:21:07.285Z,17.77
2017-11-04T19:23:36.343Z,19.90
2017-11-04T19:26:03.917Z,17.43
2017-11-04T19:28:31.463Z,14.33
2017-11-04T19:30:59.039Z,17.40
2017-11-04T19:33:26.592Z,15.90
2017-11-04T19:35:54.171Z,13.43
2017-11-04T19:38:21.707Z,15.60
2017-11-04T19:40:49.256Z,13.77
2017-11-04T19:43:16.823Z,18.23
2017-11-04T19:45:44.366Z,16.77
2017-11-04T19:48:12.694Z,18.57
2017-11-04T19:50:40.228Z,15.07
2017-11-04T19:53:07.800Z,14.10
2017-11-04T19:55:35.355Z,16.80
2017-11-04T19:58:02.935Z,12.67
2017-11-04T20:00:30.490Z,14.37
2017-11-04T20:02:58.039Z,16.10
2017-11-04T20:05:25.580Z,17.97
2017-11-04T20:07:53.139Z,21.70
2017-11-04T20:10:20.667Z,15.90
2017-11-04T20:12:48.991Z,18.57
2017-11-04T20:15:16.527Z,18.10
2017-11-04T20:17:44.082Z,17.87
2017-11-04T20:20:11.631Z,18.87
2017-11-04T20:22:39.949Z,15.60
2017-11-04T20:25:07.481Z,18.40
2017-11-04T20:27:35.043Z,16.47
2017-11-04T20:30:02.576Z,17.73
2017-11-04T20:32:30.164Z,15.80
2017-11-04T20:34:57.696Z,19.00
2017-11-04T20:37:25.271Z,17.13
2017-11-04T20:39:53.848Z,16.70
2017-11-04T20:42:21.515Z,19.57
2017-11-04T20:44:49.286Z,23.23
2017-11-04T20:47:16.833Z,19.47
2017-11-04T20:49:45.159Z,18.40
2017-11-04T20:52:12.698Z,22.23
2017-11-04T20:54:40.258Z,23.43
2017-11-04T20:57:07.786Z,17.40
2017-11-04T20:59:36.119Z,17.87
2017-11-04T21:02:03.649Z,17.90
2017-11-04T21:04:31.211Z,16.80
2017-11-04T21:06:58.750Z,20.97
2017-11-04T21:09:27.075Z,20.63
2017-11-04T21:11:54.602Z,20.93
2017-11-04T21:14:22.238Z,20.67
2017-11-04T21:16:49.771Z,26.17
2017-11-04T21:19:17.326Z,22.10
2017-11-04T21:21:44.867Z,18.50
2017-11-04T21:24:12.433Z,19.10
2017-11-04T21:26:39.965Z,24.00
2017-11-04T21:29:07.540Z,20.90
2017-11-04T21:31:35.079Z,20.03
2017-11-04T21:34:03.372Z,25.07
2017-11-04T21:36:30.926Z,23.27
2017-11-04T21:38:58.455Z,21.50
2017-11-04T21:41:26.794Z,25.37
2017-11-04T21:43:54.327Z,26.17
2017-11-04T21:46:21.889Z,21.77
2017-11-04T21:48:49.436Z,21.40
2017-11-04T21:51:17.007Z,21.27
2017-11-04T21:53:44.543Z,21.30
2017-11-04T21:56:12.874Z,33.17
2017-11-04T21:58:40.406Z,25.10
2017-11-04T22:01:07.985Z,24.87
2017-11-04T22:03:35.530Z,27.10
2017-11-04T22:06:03.122Z,24.33
2017-11-04T22:08:30.655Z,23.70
2017-11-04T22:10:58.222Z,26.97
2017-11-04T22:13:25.755Z,23.27
2017-11-04T22:15:53.308Z,23.70
2017-11-04T22:18:20.844Z,22.37
2017-11-04T22:20:49.180Z,23.83
2017-11-04T22:23:16.706Z,25.10
2017-11-04T22:25:44.302Z,21.97
2017-11-04T22:28:16.082Z,23.00
2017-11-04T22:51:44.160Z,29.17
2017-11-04T22:54:11.703Z,28.33
2017-11-04T22:56:39.271Z,32.90
2017-11-04T22:59:07.148Z,31.30
2017-11-04T23:01:34.703Z,25.33
2017-11-04T23:04:02.240Z,26.70
2017-11-04T23:06:30.643Z,22.37
2017-11-04T23:08:58.174Z,23.53
2017-11-04T23:11:26.499Z,19.87
2017-11-04T23:13:54.024Z,21.00
2017-11-04T23:16:21.583Z,19.87
2017-11-04T23:18:49.123Z,20.83
2017-11-04T23:21:17.451Z,19.20
2017-11-04T23:23:44.986Z,19.80
2017-11-04T23:26:12.539Z,19.30
2017-11-04T23:28:40.075Z,19.33
2017-11-04T23:31:08.412Z,20.50
2017-11-04T23:36:29.958Z,20.33
2017-11-04T23:38:57.501Z,19.93
2017-11-04T23:41:25.119Z,18.40
2017-11-04T23:43:53.424Z,22.77
2017-11-04T23:46:20.978Z,20.03
2017-11-04T23:48:48.511Z,21.23
2017-11-04T23:51:16.071Z,18.47
2017-11-04T23:53:43.611Z,19.57
2017-11-04T23:56:11.178Z,19.90
2017-11-04T23:58:38.712Z,19.67
